Time;durP1;ratioP1;P1;durP2;ratioP2;P2;SDS_P1;SDS_P2;PMS_P1;PMS_P2;Temp;Humidity;BMP_temperature;BMP_pressure;BME280_temperature;BME280_humidity;BME280_pressure;Samples;Min_cycle;Max_cycle;Signal;HPM_P1;HPM_P2
2022/02/07 00:00:06;;;;;;;16.05;10.70;;;;;;;;;;4876509;29;20048;-74
2022/02/07 00:05:23;;;;;;;15.20;10.85;;;;;;;;;;4876827;29;20051;-74
2022/02/07 00:07:49;;;;;;;18.50;11.98;;;;;;;;;;4876614;29;20037;-74
2022/02/07 00:10:15;;;;;;;18.67;13.35;;;;;;;;;;4876330;29;20048;-74
2022/02/07 00:12:42;;;;;;;18.05;12.55;;;;;;;;;;4876498;29;20056;-74
2022/02/07 00:15:08;;;;;;;17.20;11.55;;;;;;;;;;4875946;29;20052;-74
2022/02/07 00:17:35;;;;;;;35.75;19.40;;;;;;;;;;4876246;29;20140;-74
2022/02/07 00:20:06;;;;;;;30.42;17.08;;;;;;;;;;4875776;29;20025;-74
2022/02/07 00:22:32;;;;;;;23.48;14.77;;;;;;;;;;4876681;29;20029;-74
2022/02/07 00:24:59;;;;;;;18.08;11.77;;;;;;;;;;4866162;29;20033;-74
2022/02/07 00:27:24;;;;;;;15.00;10.70;;;;;;;;;;4876403;29;20059;-74
2022/02/07 00:29:51;;;;;;;19.90;13.07;;;;;;;;;;4875872;29;20491;-75
2022/02/07 00:32:17;;;;;;;6.63;3.28;;;;;;;;;;4876449;29;20120;-74
2022/02/07 00:34:43;;;;;;;3.28;1.58;;;;;;;;;;4867472;29;20065;-74
2022/02/07 00:37:09;;;;;;;12.20;4.97;;;;;;;;;;4857612;29;20073;-74
2022/02/07 00:39:45;;;;;;;11.40;7.28;;;;;;;;;;4863518;29;20076;-74
2022/02/07 00:42:21;;;;;;;12.05;7.88;;;;;;;;;;4876310;29;20048;-75
2022/02/07 00:44:49;;;;;;;10.57;7.13;;;;;;;;;;4875956;29;20079;-74
2022/02/07 00:47:15;;;;;;;11.75;7.95;;;;;;;;;;4875831;29;20033;-74
2022/02/07 00:49:42;;;;;;;4.20;2.00;;;;;;;;;;4874999;29;20043;-74
2022/02/07 00:52:08;;;;;;;4.38;1.70;;;;;;;;;;4875448;29;20049;-74
2022/02/07 00:54:35;;;;;;;2.67;1.00;;;;;;;;;;4875027;29;20143;-74
2022/02/07 00:57:01;;;;;;;5.35;2.17;;;;;;;;;;4875839;29;20120;-74
2022/02/07 00:59:28;;;;;;;2.25;0.93;;;;;;;;;;4875779;29;20459;-74
2022/02/07 01:01:54;;;;;;;4.80;2.47;;;;;;;;;;4875622;29;20557;-74
2022/02/07 01:04:20;;;;;;;5.65;3.20;;;;;;;;;;4875680;29;20040;-74
2022/02/07 01:06:46;;;;;;;6.85;3.95;;;;;;;;;;4859940;29;20082;-74
2022/02/07 01:09:22;;;;;;;5.90;2.70;;;;;;;;;;4857326;29;20074;-74
2022/02/07 01:15:02;;;;;;;2.20;0.90;;;;;;;;;;4799985;29;20096;-74
2022/02/07 01:49:46;;;;;;;7.20;3.70;;;;;;;;;;4879503;29;20843;-75
2022/02/07 01:52:42;;;;;;;9.10;5.13;;;;;;;;;;4859869;29;20496;-74
2022/02/07 01:55:32;;;;;;;7.55;4.30;;;;;;;;;;4872846;29;20072;-74
2022/02/07 01:57:54;;;;;;;8.63;4.07;;;;;;;;;;4875069;29;20055;-74
2022/02/07 02:00:20;;;;;;;7.55;4.40;;;;;;;;;;4878131;29;20547;-74
2022/02/07 02:02:47;;;;;;;8.95;5.18;;;;;;;;;;4877918;29;20641;-74
2022/02/07 02:05:14;;;;;;;11.38;4.25;;;;;;;;;;4878919;29;20037;-74
2022/02/07 02:07:41;;;;;;;9.70;5.70;;;;;;;;;;4878544;29;20037;-75
2022/02/07 02:10:07;;;;;;;9.55;4.97;;;;;;;;;;4878976;29;20029;-74
2022/02/07 02:12:39;;;;;;;7.03;3.85;;;;;;;;;;4878264;29;20040;-75
2022/02/07 02:15:23;;;;;;;10.32;4.43;;;;;;;;;;4879303;29;20069;-74
2022/02/07 02:18:24;;;;;;;8.27;4.13;;;;;;;;;;4874241;29;20085;-74
2022/02/07 02:37:09;;;;;;;8.55;4.18;;;;;;;;;;4860682;29;20045;-74
2022/02/07 02:47:33;;;;;;;7.18;3.95;;;;;;;;;;4872273;29;20044;-74
2022/02/07 02:50:16;;;;;;;5.30;3.38;;;;;;;;;;4865142;29;20105;-74
2022/02/07 02:52:42;;;;;;;;;;;;;;;;;;4876703;29;20447;-74
2022/02/07 02:55:08;;;;;;;4.90;1.85;;;;;;;;;;4875690;29;19924;-74
2022/02/07 02:57:35;;;;;;;4.53;2.20;;;;;;;;;;4873567;29;20090;-74
2022/02/07 03:00:01;;;;;;;5.22;2.40;;;;;;;;;;4878101;29;20040;-74
2022/02/07 03:02:27;;;;;;;3.15;1.20;;;;;;;;;;4878021;29;20707;-74
2022/02/07 03:04:53;;;;;;;4.72;2.28;;;;;;;;;;4878187;29;20044;-74
2022/02/07 03:07:19;;;;;;;7.07;2.83;;;;;;;;;;4870055;29;20033;-74
2022/02/07 03:09:49;;;;;;;7.70;3.38;;;;;;;;;;4877739;29;20120;-74
2022/02/07 03:12:17;;;;;;;5.22;2.67;;;;;;;;;;4877640;29;20037;-74
2022/02/07 03:14:45;;;;;;;3.78;1.60;;;;;;;;;;4877730;29;20043;-74
2022/02/07 03:17:11;;;;;;;5.38;1.50;;;;;;;;;;4877702;29;20183;-75
2022/02/07 03:19:37;;;;;;;3.50;1.25;;;;;;;;;;4876337;29;20037;-74
2022/02/07 03:22:03;;;;;;;0.45;0.20;;;;;;;;;;4878193;29;20041;-74
2022/02/07 03:24:29;;;;;;;1.33;0.20;;;;;;;;;;4876908;29;20033;-74
2022/02/07 03:26:55;;;;;;;0.20;0.10;;;;;;;;;;4878136;29;20037;-74
2022/02/07 03:29:21;;;;;;;0.65;0.20;;;;;;;;;;4877017;29;20037;-74
2022/02/07 03:31:47;;;;;;;2.03;0.30;;;;;;;;;;4877595;29;20045;-74
2022/02/07 03:34:13;;;;;;;5.63;2.55;;;;;;;;;;4876624;29;20068;-74
2022/02/07 03:36:39;;;;;;;7.38;2.60;;;;;;;;;;4876870;29;20451;-74
2022/02/07 03:39:06;;;;;;;5.97;3.00;;;;;;;;;;4877141;29;20547;-75
2022/02/07 03:41:32;;;;;;;5.60;2.50;;;;;;;;;;4876925;29;20101;-74
2022/02/07 03:43:58;;;;;;;0.93;0.40;;;;;;;;;;4877416;29;20041;-74
2022/02/07 03:46:24;;;;;;;0.45;0.20;;;;;;;;;;4876899;29;20569;-75
2022/02/07 03:48:50;;;;;;;0.50;0.20;;;;;;;;;;4877424;29;20037;-74
2022/02/07 03:51:16;;;;;;;0.22;0.10;;;;;;;;;;4875977;29;20045;-75
2022/02/07 03:53:42;;;;;;;1.02;0.38;;;;;;;;;;4877650;29;20057;-75
2022/02/07 03:56:08;;;;;;;4.07;1.27;;;;;;;;;;4876063;29;20041;-75
2022/02/07 03:58:34;;;;;;;1.40;0.60;;;;;;;;;;4877005;29;20599;-75
2022/02/07 04:01:00;;;;;;;2.20;0.45;;;;;;;;;;4876659;29;20033;-75
2022/02/07 04:03:29;;;;;;;0.75;0.10;;;;;;;;;;4877238;29;20114;-75
2022/02/07 04:06:02;;;;;;;1.08;0.20;;;;;;;;;;4871924;29;20616;-75
2022/02/07 04:08:32;;;;;;;0.15;0.10;;;;;;;;;;4871540;29;20045;-75
2022/02/07 04:11:05;;;;;;;1.58;0.40;;;;;;;;;;4876057;29;20041;-75
2022/02/07 04:13:36;;;;;;;0.85;0.40;;;;;;;;;;4877213;29;20029;-75
2022/02/07 04:16:03;;;;;;;6.28;1.38;;;;;;;;;;4876131;29;20041;-75
2022/02/07 04:18:46;;;;;;;4.53;1.70;;;;;;;;;;4876365;29;20033;-75
2022/02/07 04:21:12;;;;;;;4.65;1.30;;;;;;;;;;4873670;29;21656;-75
2022/02/07 04:23:38;;;;;;;2.80;1.23;;;;;;;;;;4858335;29;20073;-75
2022/02/07 04:26:04;;;;;;;4.07;1.25;;;;;;;;;;4857764;29;20124;-74
2022/02/07 04:28:30;;;;;;;2.55;0.50;;;;;;;;;;4876645;29;20064;-75
2022/02/07 04:30:56;;;;;;;1.65;0.40;;;;;;;;;;4876727;29;20085;-75
2022/02/07 04:33:22;;;;;;;0.73;0.10;;;;;;;;;;4876408;29;20404;-75
2022/02/07 04:35:48;;;;;;;0.40;0.10;;;;;;;;;;4876775;29;20080;-75
2022/02/07 04:38:14;;;;;;;1.75;0.20;;;;;;;;;;4876251;29;20094;-74
2022/02/07 04:40:40;;;;;;;1.05;0.20;;;;;;;;;;4876573;29;20072;-74
2022/02/07 04:43:09;;;;;;;8.07;4.80;;;;;;;;;;4865006;29;20478;-75
2022/02/07 04:51:52;;;;;;;4.47;1.42;;;;;;;;;;4865981;29;20049;-75
2022/02/07 04:59:22;;;;;;;5.35;1.65;;;;;;;;;;4833294;29;20098;-75
2022/02/07 05:01:52;;;;;;;4.60;2.13;;;;;;;;;;4834884;29;20034;-75
2022/02/07 05:04:58;;;;;;;4.07;1.45;;;;;;;;;;4839592;29;20109;-75
2022/02/07 05:15:24;;;;;;;4.00;0.70;;;;;;;;;;4836999;29;20045;-75
2022/02/07 05:17:51;;;;;;;3.67;0.70;;;;;;;;;;4826492;29;20061;-75
2022/02/07 05:20:17;;;;;;;2.35;0.93;;;;;;;;;;4820606;29;20150;-75
2022/02/07 05:22:43;;;;;;;3.65;0.85;;;;;;;;;;4827873;29;20526;-75
2022/02/07 05:25:09;;;;;;;5.18;2.00;;;;;;;;;;4838802;29;20044;-75
2022/02/07 05:27:35;;;;;;;5.78;2.30;;;;;;;;;;4838272;29;20087;-75
2022/02/07 05:30:02;;;;;;;7.80;2.72;;;;;;;;;;4838503;29;20041;-75
2022/02/07 05:32:28;;;;;;;7.57;3.47;;;;;;;;;;4838037;29;20054;-75
2022/02/07 05:34:54;;;;;;;4.07;1.30;;;;;;;;;;4835238;29;20553;-75
2022/02/07 05:37:21;;;;;;;2.40;0.57;;;;;;;;;;4828159;29;20423;-75
2022/02/07 05:39:52;;;;;;;12.80;6.07;;;;;;;;;;4837852;29;20048;-75
2022/02/07 05:42:18;;;;;;;5.72;2.47;;;;;;;;;;4838682;29;20404;-75
2022/02/07 05:44:46;;;;;;;9.05;3.70;;;;;;;;;;4827843;29;20076;-75
2022/02/07 05:47:13;;;;;;;9.52;4.55;;;;;;;;;;4838729;29;20042;-75
2022/02/07 05:49:39;;;;;;;4.00;1.27;;;;;;;;;;4834678;29;20416;-75
2022/02/07 05:52:05;;;;;;;3.70;1.00;;;;;;;;;;4836525;29;20396;-75
2022/02/07 05:54:31;;;;;;;3.20;0.40;;;;;;;;;;4830917;29;20038;-75
2022/02/07 05:56:57;;;;;;;4.50;1.30;;;;;;;;;;4839958;29;20038;-75
2022/02/07 05:59:23;;;;;;;3.75;1.05;;;;;;;;;;4875476;29;20037;-75
2022/02/07 06:01:49;;;;;;;6.38;0.90;;;;;;;;;;4871709;29;20033;-75
2022/02/07 06:04:15;;;;;;;2.80;0.80;;;;;;;;;;4875380;29;20033;-75
2022/02/07 06:06:41;;;;;;;4.40;0.70;;;;;;;;;;4868280;29;20041;-75
2022/02/07 06:09:07;;;;;;;4.10;1.00;;;;;;;;;;4874068;29;20047;-75
2022/02/07 06:11:34;;;;;;;9.05;3.15;;;;;;;;;;4874638;29;20040;-75
2022/02/07 06:14:00;;;;;;;7.45;1.65;;;;;;;;;;4875768;29;20037;-75
2022/02/07 06:16:28;;;;;;;8.50;1.73;;;;;;;;;;4870315;29;20043;-74
2022/02/07 06:18:54;;;;;;;3.85;1.40;;;;;;;;;;4873589;29;20033;-75
2022/02/07 06:21:20;;;;;;;3.17;1.13;;;;;;;;;;4874510;29;20037;-75
2022/02/07 06:23:46;;;;;;;5.50;2.63;;;;;;;;;;4875760;29;20112;-74
2022/02/07 06:26:12;;;;;;;4.78;2.28;;;;;;;;;;4875208;29;20120;-75
2022/02/07 06:28:38;;;;;;;10.68;5.75;;;;;;;;;;4876480;29;20040;-74
2022/02/07 06:31:05;;;;;;;8.73;4.93;;;;;;;;;;4875004;29;20037;-75
2022/02/07 06:33:31;;;;;;;13.05;4.55;;;;;;;;;;4873928;29;20140;-74
2022/02/07 06:35:58;;;;;;;11.07;4.75;;;;;;;;;;4877289;29;20086;-74
2022/02/07 06:38:24;;;;;;;11.45;6.00;;;;;;;;;;4872185;29;20040;-74
2022/02/07 06:40:50;;;;;;;8.80;4.32;;;;;;;;;;4873286;29;20045;-74
2022/02/07 06:43:16;;;;;;;9.45;3.35;;;;;;;;;;4874303;29;20033;-74
2022/02/07 06:45:42;;;;;;;11.15;4.00;;;;;;;;;;4877638;29;20044;-74
2022/02/07 06:48:08;;;;;;;5.75;1.85;;;;;;;;;;4875727;29;20045;-73
2022/02/07 06:50:34;;;;;;;9.30;2.40;;;;;;;;;;4873708;29;20045;-74
2022/02/07 06:53:00;;;;;;;3.92;1.08;;;;;;;;;;4877689;29;20055;-74
2022/02/07 06:55:26;;;;;;;4.05;0.90;;;;;;;;;;4874982;29;20085;-75
2022/02/07 06:57:52;;;;;;;7.38;1.05;;;;;;;;;;4874783;29;20529;-74
2022/02/07 07:00:18;;;;;;;6.35;1.95;;;;;;;;;;4874937;29;20052;-74
2022/02/07 07:02:47;;;;;;;6.32;2.15;;;;;;;;;;4865754;29;20033;-74
2022/02/07 07:05:15;;;;;;;9.27;4.13;;;;;;;;;;4875219;29;20116;-74
2022/02/07 07:07:41;;;;;;;9.88;4.13;;;;;;;;;;4866928;29;20025;-74
2022/02/07 07:10:08;;;;;;;6.90;0.52;;;;;;;;;;4877882;29;20120;-75
2022/02/07 07:12:34;;;;;;;3.13;0.88;;;;;;;;;;4877520;29;20040;-74
2022/02/07 07:15:14;;;;;;;6.60;1.10;;;;;;;;;;4875343;29;20037;-74
2022/02/07 07:17:40;;;;;;;12.52;6.10;;;;;;;;;;4875333;29;20036;-74
2022/02/07 07:20:08;;;;;;;16.85;8.02;;;;;;;;;;4877633;29;20482;-74
2022/02/07 07:22:34;;;;;;;10.88;4.53;;;;;;;;;;4874365;29;20056;-74
2022/02/07 07:25:00;;;;;;;10.85;4.55;;;;;;;;;;4877382;29;20085;-75
2022/02/07 07:27:31;;;;;;;9.73;1.63;;;;;;;;;;4873405;29;20044;-74
2022/02/07 07:29:57;;;;;;;3.60;0.80;;;;;;;;;;4877679;29;20047;-74
2022/02/07 07:32:27;;;;;;;5.18;1.50;;;;;;;;;;4876627;29;20037;-74
2022/02/07 07:34:54;;;;;;;10.38;5.15;;;;;;;;;;4877733;29;20044;-74
2022/02/07 07:37:20;;;;;;;10.52;4.35;;;;;;;;;;4874457;29;20740;-74
2022/02/07 07:39:46;;;;;;;10.57;3.72;;;;;;;;;;4870442;29;20037;-75
2022/02/07 07:42:12;;;;;;;19.67;2.60;;;;;;;;;;4876261;29;20451;-74
2022/02/07 07:44:39;;;;;;;10.90;3.25;;;;;;;;;;4876497;29;20762;-74
2022/02/07 07:47:10;;;;;;;10.02;3.85;;;;;;;;;;4873169;29;20036;-74
2022/02/07 07:49:49;;;;;;;12.07;3.60;;;;;;;;;;4866223;29;20072;-74
2022/02/07 07:52:19;;;;;;;10.40;3.15;;;;;;;;;;4869399;29;20037;-74
2022/02/07 08:02:42;;;;;;;9.40;4.25;;;;;;;;;;4868736;29;20115;-75
2022/02/07 08:05:18;;;;;;;12.05;3.97;;;;;;;;;;4873023;29;20033;-74
2022/02/07 08:07:51;;;;;;;10.05;4.50;;;;;;;;;;4874055;29;20029;-74
2022/02/07 08:12:47;;;;;;;16.70;3.38;;;;;;;;;;4866765;29;19916;-74
2022/02/07 08:15:15;;;;;;;9.00;1.83;;;;;;;;;;4868102;29;20037;-74
2022/02/07 08:17:42;;;;;;;11.90;2.80;;;;;;;;;;4876186;29;20029;-74
2022/02/07 08:20:08;;;;;;;8.55;1.30;;;;;;;;;;4865865;29;20125;-74
2022/02/07 08:22:34;;;;;;;9.15;2.10;;;;;;;;;;4872961;29;20376;-74
2022/02/07 08:25:02;;;;;;;9.48;2.00;;;;;;;;;;4876529;29;20047;-74
2022/02/07 08:27:29;;;;;;;9.40;1.85;;;;;;;;;;4874916;29;20040;-74
2022/02/07 08:29:56;;;;;;;7.07;1.63;;;;;;;;;;4875861;29;20045;-74
2022/02/07 08:32:23;;;;;;;9.05;2.03;;;;;;;;;;4864905;29;20037;-74
2022/02/07 08:34:49;;;;;;;12.65;3.00;;;;;;;;;;4858090;29;20207;-74
2022/02/07 08:37:15;;;;;;;10.38;3.13;;;;;;;;;;4871946;29;20033;-74
2022/02/07 08:39:42;;;;;;;7.90;3.05;;;;;;;;;;4871464;29;20055;-74
2022/02/07 08:42:08;;;;;;;9.63;2.20;;;;;;;;;;4868870;29;20034;-75
2022/02/07 08:44:35;;;;;;;7.63;1.98;;;;;;;;;;4875219;29;20069;-74
2022/02/07 08:47:01;;;;;;;9.35;2.15;;;;;;;;;;4876179;29;20037;-74
2022/02/07 08:49:27;;;;;;;7.15;1.65;;;;;;;;;;4873213;29;20835;-74
2022/02/07 08:51:53;;;;;;;10.00;1.98;;;;;;;;;;4873392;29;20040;-74
2022/02/07 08:54:23;;;;;;;6.15;1.15;;;;;;;;;;4870609;29;20077;-73
2022/02/07 08:56:55;;;;;;;7.07;2.03;;;;;;;;;;4871645;29;20121;-74
2022/02/07 08:59:28;;;;;;;5.72;1.30;;;;;;;;;;4856766;29;20049;-74
2022/02/07 09:02:12;;;;;;;6.93;1.27;;;;;;;;;;4870174;29;20430;-74
2022/02/07 09:04:56;;;;;;;7.20;1.30;;;;;;;;;;4867966;29;20037;-74
2022/02/07 09:07:31;;;;;;;6.85;1.70;;;;;;;;;;4864086;29;20036;-75
2022/02/07 09:09:58;;;;;;;6.15;1.55;;;;;;;;;;4872750;29;20655;-75
2022/02/07 09:12:24;;;;;;;9.82;1.80;;;;;;;;;;4867780;29;20044;-74
2022/02/07 09:15:07;;;;;;;11.43;2.92;;;;;;;;;;4861972;29;20041;-75
2022/02/07 09:17:33;;;;;;;8.65;2.70;;;;;;;;;;4871319;29;20029;-74
2022/02/07 09:19:59;;;;;;;8.57;2.65;;;;;;;;;;4866570;29;20049;-75
2022/02/07 09:22:25;;;;;;;10.38;4.57;;;;;;;;;;4867127;29;20029;-75
2022/02/07 09:24:51;;;;;;;13.35;5.72;;;;;;;;;;4871486;29;20041;-75
2022/02/07 09:27:17;;;;;;;13.70;4.85;;;;;;;;;;4866946;29;20095;-75
2022/02/07 09:29:43;;;;;;;15.73;5.15;;;;;;;;;;4865549;29;20037;-74
2022/02/07 09:32:10;;;;;;;8.50;4.80;;;;;;;;;;4867362;29;20053;-75
2022/02/07 09:34:36;;;;;;;10.15;3.05;;;;;;;;;;4871914;29;20060;-75
2022/02/07 09:37:02;;;;;;;9.70;3.25;;;;;;;;;;4870365;29;20037;-75
2022/02/07 09:39:30;;;;;;;12.55;5.43;;;;;;;;;;4870696;29;20433;-75
2022/02/07 09:42:04;;;;;;;15.10;7.18;;;;;;;;;;4873590;29;20800;-74
2022/02/07 09:44:39;;;;;;;12.30;5.68;;;;;;;;;;4874576;29;20037;-75
2022/02/07 09:47:06;;;;;;;11.50;4.70;;;;;;;;;;4863375;29;20036;-75
2022/02/07 09:49:34;;;;;;;10.68;3.28;;;;;;;;;;4875074;29;20085;-74
2022/02/07 09:52:03;;;;;;;13.95;4.30;;;;;;;;;;4874620;29;20025;-75
2022/02/07 09:54:29;;;;;;;2.78;0.68;;;;;;;;;;4872958;29;20063;-74
2022/02/07 09:56:55;;;;;;;4.13;1.02;;;;;;;;;;4874371;29;20484;-74
2022/02/07 09:59:27;;;;;;;7.00;0.95;;;;;;;;;;4869575;29;20124;-74
2022/02/07 10:01:56;;;;;;;5.10;0.70;;;;;;;;;;4873018;29;20036;-74
2022/02/07 10:04:27;;;;;;;5.40;0.80;;;;;;;;;;4869834;29;22110;-74
2022/02/07 10:07:08;;;;;;;5.22;0.80;;;;;;;;;;4874680;29;20056;-74
2022/02/07 10:09:44;;;;;;;6.03;0.95;;;;;;;;;;4877988;29;20048;-74
2022/02/07 10:15:22;;;;;;;8.32;1.40;;;;;;;;;;4871088;29;20134;-74
2022/02/07 10:18:00;;;;;;;6.38;0.93;;;;;;;;;;4878035;29;20036;-74
2022/02/07 10:40:13;;;;;;;;;;;;;;;;;;4878176;29;20948;-74
2022/02/07 10:43:07;;;;;;;9.15;1.33;;;;;;;;;;4876092;29;20831;-74
2022/02/07 10:45:35;;;;;;;4.55;1.00;;;;;;;;;;4871891;29;20045;-74
2022/02/07 10:48:05;;;;;;;6.75;1.27;;;;;;;;;;4869605;29;20029;-74
2022/02/07 10:50:31;;;;;;;5.60;0.80;;;;;;;;;;4870618;29;20040;-74
2022/02/07 10:53:00;;;;;;;8.70;1.30;;;;;;;;;;4871089;29;20468;-73
2022/02/07 10:55:26;;;;;;;4.60;0.90;;;;;;;;;;4869986;29;20361;-73
2022/02/07 10:57:53;;;;;;;6.47;1.13;;;;;;;;;;4876177;29;20551;-74
2022/02/07 11:00:34;;;;;;;3.53;0.65;;;;;;;;;;4873962;29;20065;-74
2022/02/07 11:06:01;;;;;;;6.70;1.10;;;;;;;;;;4860049;29;20045;-74
2022/02/07 11:08:33;;;;;;;4.65;0.85;;;;;;;;;;4870975;29;20421;-74
2022/02/07 11:13:58;;;;;;;5.53;0.93;;;;;;;;;;4875179;29;20060;-73
2022/02/07 11:16:34;;;;;;;6.38;1.27;;;;;;;;;;4873167;29;20049;-73
2022/02/07 11:19:10;;;;;;;7.55;1.40;;;;;;;;;;4873323;29;20029;-74
2022/02/07 11:21:43;;;;;;;5.18;1.00;;;;;;;;;;4870229;29;20543;-74
2022/02/07 11:27:25;;;;;;;6.03;0.90;;;;;;;;;;4837718;29;20035;-74
2022/02/07 11:29:51;;;;;;;4.68;1.10;;;;;;;;;;4869395;29;20569;-73
2022/02/07 11:32:36;;;;;;;6.72;1.40;;;;;;;;;;4871674;29;20148;-74
2022/02/07 11:35:05;;;;;;;4.97;0.80;;;;;;;;;;4877159;29;20140;-74
2022/02/07 11:37:31;;;;;;;10.55;1.27;;;;;;;;;;4872002;29;20917;-74
2022/02/07 11:39:57;;;;;;;7.03;2.10;;;;;;;;;;4869199;29;20043;-74
2022/02/07 11:42:23;;;;;;;5.38;0.93;;;;;;;;;;4870744;29;20112;-74
2022/02/07 11:44:52;;;;;;;4.20;0.85;;;;;;;;;;4869186;29;20487;-73
2022/02/07 11:47:18;;;;;;;4.05;0.50;;;;;;;;;;4872826;29;20043;-74
2022/02/07 11:49:48;;;;;;;6.53;0.90;;;;;;;;;;4871042;29;20086;-73
2022/02/07 11:52:26;;;;;;;4.72;0.95;;;;;;;;;;4869050;29;20033;-73
2022/02/07 11:54:56;;;;;;;7.93;1.20;;;;;;;;;;4874255;29;20037;-74
2022/02/07 11:57:24;;;;;;;6.63;1.02;;;;;;;;;;4873111;29;20040;-73
2022/02/07 11:59:59;;;;;;;2.95;0.60;;;;;;;;;;4867592;29;20033;-73
2022/02/07 12:02:50;;;;;;;3.72;0.70;;;;;;;;;;4874525;29;20527;-72
2022/02/07 12:05:19;;;;;;;3.60;1.20;;;;;;;;;;4857805;29;20065;-73
2022/02/07 12:08:04;;;;;;;16.20;1.02;;;;;;;;;;4874454;29;20044;-72
2022/02/07 12:13:03;;;;;;;3.72;0.50;;;;;;;;;;4875508;29;20052;-72
2022/02/07 12:15:35;;;;;;;5.10;0.57;;;;;;;;;;4874780;29;20123;-73
2022/02/07 12:18:21;;;;;;;5.03;0.60;;;;;;;;;;4873431;29;20040;-72
2022/02/07 12:20:49;;;;;;;3.22;0.60;;;;;;;;;;4871858;29;20037;-72
2022/02/07 12:23:19;;;;;;;3.20;0.68;;;;;;;;;;4876084;29;20108;-72
2022/02/07 12:25:53;;;;;;;3.35;0.70;;;;;;;;;;4867517;29;20037;-72
2022/02/07 12:28:42;;;;;;;4.40;0.52;;;;;;;;;;4874038;29;20037;-72
2022/02/07 12:31:19;;;;;;;6.07;0.60;;;;;;;;;;4866639;29;20080;-72
2022/02/07 12:33:52;;;;;;;3.72;0.70;;;;;;;;;;4871825;29;20118;-72
2022/02/07 12:36:18;;;;;;;3.92;0.63;;;;;;;;;;4870423;29;20041;-72
2022/02/07 12:38:44;;;;;;;1.52;0.40;;;;;;;;;;4873947;29;20104;-72
2022/02/07 12:41:12;;;;;;;3.72;0.60;;;;;;;;;;4849931;29;20037;-72
2022/02/07 12:43:39;;;;;;;6.95;0.60;;;;;;;;;;4872488;29;20047;-72
2022/02/07 12:46:07;;;;;;;5.35;0.75;;;;;;;;;;4867818;29;20030;-72
2022/02/07 12:48:36;;;;;;;4.22;0.90;;;;;;;;;;4869019;29;20497;-73
2022/02/07 12:51:03;;;;;;;5.65;0.95;;;;;;;;;;4866960;29;20388;-73
2022/02/07 12:53:30;;;;;;;2.10;0.55;;;;;;;;;;4873946;29;20052;-73
2022/02/07 12:55:58;;;;;;;3.80;0.75;;;;;;;;;;4875156;29;20037;-73
2022/02/07 12:58:25;;;;;;;4.88;0.60;;;;;;;;;;4872236;29;20052;-73
2022/02/07 13:00:51;;;;;;;3.33;0.50;;;;;;;;;;4874159;29;20463;-73
2022/02/07 13:03:17;;;;;;;2.92;0.50;;;;;;;;;;4871194;29;20037;-73
2022/02/07 13:05:47;;;;;;;3.53;0.52;;;;;;;;;;4866539;29;20033;-73
2022/02/07 13:08:17;;;;;;;4.32;0.60;;;;;;;;;;4865618;29;20033;-72
2022/02/07 13:10:51;;;;;;;2.75;0.50;;;;;;;;;;4861904;29;20570;-73
2022/02/07 13:13:29;;;;;;;5.18;0.63;;;;;;;;;;4874284;29;20060;-72
2022/02/07 13:15:56;;;;;;;2.85;0.50;;;;;;;;;;4872066;29;20021;-72
2022/02/07 13:18:22;;;;;;;3.55;0.60;;;;;;;;;;4874484;29;20424;-73
2022/02/07 13:20:51;;;;;;;1.75;0.30;;;;;;;;;;4871195;29;20041;-73
2022/02/07 13:23:18;;;;;;;6.85;0.45;;;;;;;;;;4867889;29;20029;-72
2022/02/07 13:25:52;;;;;;;3.13;0.40;;;;;;;;;;4871084;29;20033;-73
2022/02/07 13:28:20;;;;;;;10.52;1.08;;;;;;;;;;4874585;29;20025;-73
2022/02/07 13:30:48;;;;;;;6.28;0.60;;;;;;;;;;4871440;29;20024;-72
2022/02/07 13:33:14;;;;;;;3.95;0.70;;;;;;;;;;4869566;29;20058;-72
2022/02/07 13:35:43;;;;;;;4.22;0.55;;;;;;;;;;4866795;29;20036;-72
2022/02/07 13:38:10;;;;;;;4.85;0.80;;;;;;;;;;4861146;29;20040;-73
2022/02/07 13:40:50;;;;;;;5.75;0.47;;;;;;;;;;4872656;29;20029;-72
2022/02/07 13:43:34;;;;;;;5.43;0.70;;;;;;;;;;4866662;29;20038;-73
2022/02/07 13:46:04;;;;;;;5.15;0.60;;;;;;;;;;4877157;29;20420;-73
2022/02/07 13:48:34;;;;;;;3.67;0.47;;;;;;;;;;4874367;29;20467;-72
2022/02/07 13:51:01;;;;;;;2.83;0.55;;;;;;;;;;4872732;29;20372;-72
2022/02/07 13:53:28;;;;;;;3.88;0.50;;;;;;;;;;4878692;29;20048;-72
2022/02/07 13:55:55;;;;;;;3.17;0.60;;;;;;;;;;4860226;29;20029;-72
2022/02/07 13:58:33;;;;;;;5.75;0.90;;;;;;;;;;4876537;29;20416;-72
2022/02/07 14:01:04;;;;;;;4.63;1.00;;;;;;;;;;4872438;29;20041;-72
2022/02/07 14:03:33;;;;;;;3.40;0.65;;;;;;;;;;4876549;29;20037;-73
2022/02/07 14:06:18;;;;;;;4.80;0.50;;;;;;;;;;4877326;29;20037;-72
2022/02/07 14:08:47;;;;;;;3.47;0.57;;;;;;;;;;4870418;29;20042;-72
2022/02/07 14:11:14;;;;;;;3.33;0.70;;;;;;;;;;4874126;29;20045;-72
2022/02/07 14:13:41;;;;;;;5.30;0.70;;;;;;;;;;4870774;29;20565;-72
2022/02/07 14:16:09;;;;;;;6.72;0.77;;;;;;;;;;4878044;29;20364;-72
2022/02/07 14:18:37;;;;;;;5.22;1.13;;;;;;;;;;4868952;29;20037;-73
2022/02/07 14:21:09;;;;;;;3.92;0.55;;;;;;;;;;4878242;29;20724;-73
2022/02/07 14:23:35;;;;;;;4.55;0.63;;;;;;;;;;4873271;29;20033;-72
2022/02/07 14:26:03;;;;;;;3.05;0.65;;;;;;;;;;4873919;29;20041;-72
2022/02/07 14:28:29;;;;;;;3.50;0.50;;;;;;;;;;4868220;29;20037;-73
2022/02/07 14:30:55;;;;;;;5.65;0.60;;;;;;;;;;4870138;29;20044;-73
2022/02/07 14:33:21;;;;;;;6.57;0.68;;;;;;;;;;4875957;29;20031;-72
2022/02/07 14:35:47;;;;;;;2.20;0.45;;;;;;;;;;4865148;29;20045;-72
2022/02/07 14:38:14;;;;;;;8.07;0.77;;;;;;;;;;4876568;29;20044;-72
2022/02/07 14:40:43;;;;;;;6.50;0.93;;;;;;;;;;4871175;29;20488;-72
2022/02/07 14:43:22;;;;;;;3.40;0.60;;;;;;;;;;4875188;29;20463;-72
2022/02/07 14:48:29;;;;;;;3.30;0.60;;;;;;;;;;4871131;29;20052;-73
2022/02/07 14:50:55;;;;;;;3.72;0.55;;;;;;;;;;4874767;29;20037;-72
2022/02/07 14:53:22;;;;;;;3.00;0.63;;;;;;;;;;4873877;29;20494;-72
2022/02/07 14:55:48;;;;;;;10.13;1.15;;;;;;;;;;4877276;29;20391;-72
2022/02/07 14:58:14;;;;;;;5.03;0.60;;;;;;;;;;4876970;29;20060;-72
2022/02/07 15:00:40;;;;;;;5.55;1.00;;;;;;;;;;4877362;29;20116;-72
2022/02/07 15:03:10;;;;;;;4.68;0.68;;;;;;;;;;4872768;29;20037;-73
2022/02/07 15:05:36;;;;;;;3.65;0.43;;;;;;;;;;4869783;29;20034;-73
2022/02/07 15:08:02;;;;;;;2.33;0.35;;;;;;;;;;4870269;29;20039;-72
2022/02/07 15:10:36;;;;;;;5.28;1.30;;;;;;;;;;4873474;29;20060;-72
2022/02/07 15:13:02;;;;;;;3.92;0.55;;;;;;;;;;4873118;29;20037;-72
2022/02/07 15:15:28;;;;;;;3.97;0.50;;;;;;;;;;4876732;29;20144;-72
2022/02/07 15:17:55;;;;;;;6.80;1.65;;;;;;;;;;4873124;29;20044;-73
2022/02/07 15:20:22;;;;;;;6.20;0.60;;;;;;;;;;4876373;29;20508;-72
2022/02/07 15:22:49;;;;;;;5.22;0.47;;;;;;;;;;4868984;29;20029;-73
2022/02/07 15:25:27;;;;;;;7.35;1.35;;;;;;;;;;4876696;29;20040;-73
2022/02/07 15:27:54;;;;;;;2.28;0.47;;;;;;;;;;4877201;29;20567;-73
2022/02/07 15:30:21;;;;;;;7.30;0.70;;;;;;;;;;4876896;29;20115;-72
2022/02/07 15:32:50;;;;;;;7.30;0.65;;;;;;;;;;4876796;29;20068;-72
2022/02/07 15:35:16;;;;;;;5.13;0.60;;;;;;;;;;4877047;29;20123;-73
2022/02/07 15:37:42;;;;;;;4.10;0.50;;;;;;;;;;4867639;29;20509;-73
2022/02/07 15:40:09;;;;;;;7.22;1.35;;;;;;;;;;4863599;29;20033;-72
2022/02/07 15:42:36;;;;;;;9.20;0.68;;;;;;;;;;4876733;29;20486;-73
2022/02/07 15:45:03;;;;;;;5.50;1.88;;;;;;;;;;4877693;29;20073;-72
2022/02/07 15:47:34;;;;;;;8.40;2.60;;;;;;;;;;4871331;29;20036;-73
2022/02/07 15:50:04;;;;;;;8.60;1.70;;;;;;;;;;4876981;29;20044;-73
2022/02/07 15:52:30;;;;;;;6.38;1.60;;;;;;;;;;4873527;29;20583;-73
2022/02/07 15:54:58;;;;;;;6.88;1.40;;;;;;;;;;4876947;29;20108;-73
2022/02/07 15:57:24;;;;;;;5.18;0.80;;;;;;;;;;4867610;29;20612;-72
2022/02/07 15:59:50;;;;;;;5.93;0.93;;;;;;;;;;4875245;29;20041;-72
2022/02/07 16:02:16;;;;;;;3.38;0.90;;;;;;;;;;4872329;29;20036;-73
2022/02/07 16:04:42;;;;;;;6.88;0.80;;;;;;;;;;4874477;29;20045;-72
2022/02/07 16:07:10;;;;;;;6.55;2.58;;;;;;;;;;4876100;29;20033;-73
2022/02/07 16:09:37;;;;;;;19.05;7.07;;;;;;;;;;4876547;29;20089;-73
2022/02/07 16:12:09;;;;;;;12.73;5.72;;;;;;;;;;4876769;29;20037;-73
2022/02/07 16:14:36;;;;;;;10.25;5.47;;;;;;;;;;4876045;29;20072;-73
2022/02/07 16:17:02;;;;;;;12.57;5.50;;;;;;;;;;4871361;29;20048;-72
2022/02/07 16:19:30;;;;;;;7.95;2.63;;;;;;;;;;4860414;29;20034;-72
2022/02/07 16:21:57;;;;;;;5.60;1.67;;;;;;;;;;4873090;29;20076;-73
2022/02/07 16:24:24;;;;;;;6.47;1.63;;;;;;;;;;4874957;29;20037;-73
2022/02/07 16:26:51;;;;;;;3.13;1.17;;;;;;;;;;4874967;29;20119;-73
2022/02/07 16:29:18;;;;;;;12.15;5.50;;;;;;;;;;4873873;29;20059;-73
2022/02/07 16:31:44;;;;;;;10.98;2.92;;;;;;;;;;4866342;29;20155;-73
2022/02/07 16:34:16;;;;;;;6.45;2.63;;;;;;;;;;4871252;29;20033;-72
2022/02/07 16:36:42;;;;;;;28.90;11.98;;;;;;;;;;4867809;29;20066;-73
2022/02/07 16:39:08;;;;;;;16.55;5.50;;;;;;;;;;4875223;29;20041;-73
2022/02/07 16:41:36;;;;;;;8.30;2.70;;;;;;;;;;4871225;29;20127;-73
2022/02/07 16:44:03;;;;;;;5.53;2.35;;;;;;;;;;4867118;29;20124;-72
2022/02/07 16:49:16;;;;;;;18.20;9.23;;;;;;;;;;4870310;29;20060;-73
2022/02/07 16:51:42;;;;;;;17.50;8.90;;;;;;;;;;4870203;29;20064;-73
2022/02/07 16:54:08;;;;;;;18.13;8.32;;;;;;;;;;4874183;29;20044;-72
2022/02/07 16:56:36;;;;;;;19.50;6.03;;;;;;;;;;4876048;29;20060;-72
2022/02/07 16:59:02;;;;;;;12.52;4.53;;;;;;;;;;4852422;29;20631;-73
2022/02/07 17:01:28;;;;;;;16.25;6.05;;;;;;;;;;4875780;29;20033;-72